CHIUDI BANNER

Seguici su twitter Seguici su facebook
LIVE Streaming HD
Get Adobe Flash player
Dati meteo stazione (refresh automatico ogni minuto)
Senigallia VENTO: VELOCITÀ   PIOGGIA: QTA GIORNO TEMPERATURA: ATTUALE
SPOT: Darsena Di Senigallia RAFFICA MASSIMA: QTA MENSILE: MASSIMA:
VELOCITÀ MEDIA: QTA ANNUALE: MINIMA:
DIREZIONE: UMIDITÀ: WIND CHILL:
TIPO: DEW POINT:
BEAUFORT: PRESSIONE:
I nostri partner
Senigallia nelle ultime ore
Applica filtri in visualizzazione Intervallo delle letture nelle ultime

Ora Direzione Vento Velocita' Vento Media Vento Raffica Max. Temperatura Wind Chill Pioggia Pressione
15:47:2385 °(E)6.1 Kts5.2 Kts10.4 Kts21.2 °C20.1 °C0 mm1025.1 Hpa
15:42:0673 °(ENE)4.3 Kts4.3 Kts10.4 Kts21.2 °C20.6 °C0 mm1025.3 Hpa
15:37:5680 °(E)4.3 Kts4.3 Kts10.4 Kts21.2 °C20.6 °C0 mm1025.3 Hpa
15:32:3578 °(ENE)3.5 Kts4.3 Kts10.4 Kts21.2 °C20.6 °C0 mm1025.4 Hpa
15:27:1962 °(ENE)4.3 Kts3.5 Kts10.4 Kts21.3 °C21.3 °C0 mm1025.4 Hpa
15:23:0669 °(ENE)3.5 Kts3.5 Kts10.4 Kts21.2 °C21.2 °C0 mm1025.5 Hpa
15:17:5457 °(ENE)3.5 Kts3.5 Kts10.4 Kts21.3 °C21.3 °C0 mm1025.6 Hpa
15:12:4055 °(NE)4.3 Kts3.5 Kts10.4 Kts21.3 °C21.3 °C0 mm1025.5 Hpa
15:07:2761 °(ENE)4.3 Kts3.5 Kts10.4 Kts21.3 °C21.3 °C0 mm1025.5 Hpa
15:01:2242 °(NE)0.9 Kts3.5 Kts10.4 Kts21.3 °C21.3 °C0 mm1025.8 Hpa
14:57:1144 °(NE)3.5 Kts4.3 Kts10.4 Kts21.2 °C20.6 °C0 mm1025.6 Hpa
14:53:0245 °(NE)3.5 Kts4.3 Kts10.4 Kts21.2 °C20.6 °C0 mm1025.6 Hpa
14:46:4946 °(NE)3.5 Kts3.5 Kts10.4 Kts21.2 °C21.2 °C0 mm1025.6 Hpa
14:43:0243 °(NE)2.6 Kts4.3 Kts10.4 Kts21.2 °C20.5 °C0 mm1025.8 Hpa
14:37:4748 °(NE)4.3 Kts3.5 Kts10.4 Kts21.1 °C21.1 °C0 mm1025.8 Hpa
14:32:3470 °(ENE)3.5 Kts3.5 Kts10.4 Kts21.1 °C21.1 °C0 mm1025.9 Hpa
14:27:4350 °(NE)3.5 Kts4.3 Kts10.4 Kts21.1 °C20.4 °C0 mm1025.9 Hpa
14:22:3048 °(NE)3.5 Kts4.3 Kts10.4 Kts20.9 °C20.2 °C0 mm1025.9 Hpa
14:17:1751 °(NE)5.2 Kts4.3 Kts10.4 Kts20.7 °C20.1 °C0 mm1025.9 Hpa
14:13:0647 °(NE)3.5 Kts4.3 Kts10.4 Kts20.8 °C20.1 °C0 mm1026 Hpa
14:07:5540 °(NE)4.3 Kts4.3 Kts10.4 Kts20.8 °C20.1 °C0 mm1026.1 Hpa
14:02:4049 °(NE)4.3 Kts4.3 Kts10.4 Kts20.7 °C20.1 °C0 mm1026.1 Hpa
13:57:4148 °(NE)5.2 Kts4.3 Kts10.4 Kts20.7 °C20 °C0 mm1026.1 Hpa
13:52:3135 °(NE)5.2 Kts4.3 Kts10.4 Kts20.7 °C20 °C0 mm1026 Hpa